Detalii statie AGRALMIXT [00001CED]

Toti senzorii

Date Temperatura solului [C]Precipitatii [mm]Voltaj baterie [mV]Leaf Wetness [Min]HC Air temperature [C]HC Relative humidity [%]Punctul de roua [C]
medieminmaxsumaultimatimpmedieminmaxmediemediemin
2019-06-15 17:00:00 0 7294 31.44 28.83 33.74 46.69 18.3 16.8
2019-06-15 18:00:00 0 7138 32.1 30.68 33.32 45.6 18.6 17.1
2019-06-15 19:00:00 0 7196 30.57 28.77 31.82 51.25 19.1 17.8
2019-06-15 20:00:00 0 6766 26.3 24.77 28.27 66.84 19.4 19.1
2019-06-15 21:00:00 0 6698 23.78 22.47 24.67 76.24 19.2 18.9
2019-06-15 22:00:00 0 6688 21.94 21.32 22.28 87.06 19.5 19.2
2019-06-15 23:00:00 0 6678 20.83 20.65 21.27 96.26 20.1 19.5
2019-06-16 00:00:00 0 6678 20.43 20.02 20.85 100 20.3 20
2019-06-16 01:00:00 0 6668 19.87 19.62 20.02 100 19.8 19.6
2019-06-16 02:00:00 0 6668 19.66 19.4 19.87 100 19.6 19.4
2019-06-16 03:00:00 0 6660 18.53 18.21 19.33 100 18.5 18.2
2019-06-16 04:00:00 0 6660 18.19 17.58 18.8 100 18.1 17.5
2019-06-16 05:00:00 0 6698 17.96 17.45 18.53 100 17.9 17.4
2019-06-16 06:00:00 0 6904 19.43 18.81 20.37 100 19.3 18.8
2019-06-16 07:00:00 0 7332 22.49 20.84 24.53 100 22.4 20.8
2019-06-16 08:00:00 0 7332 26.39 24.78 27.77 80.09 22.4 21.3
2019-06-16 09:00:00 0 7324 29.55 28.46 31.05 63.29 21.6 20.4
2019-06-16 10:00:00 0 7314 32.36 31.4 33.47 52.84 21.2 19.6
2019-06-16 11:00:00 0 7314 33.02 32.04 33.86 50.01 21 19.2
2019-06-16 12:00:00 0 7314 33.63 32.8 34.56 47.29 20.6 19.2
2019-06-16 13:00:00 0 7314 33.61 31.1 35.47 44.96 19.7 18.3
2019-06-16 14:00:00 0 7314 34.47 33.17 35.63 43.2 19.9 18.3
2019-06-16 15:00:00 0 7166 34.11 31.25 36.05 42.84 19.3 17.5
2019-06-16 16:00:00 0 7000 60 34.41 31.78 36 40.43 18.7 17.1
2019-06-16 17:00:00 0 7294 32.74 30.32 34.05 43.45 18.3 17.5
2019-06-16 18:00:00 0 7294 29.46 28.38 31.03 57.38 19.9 18.4
2019-06-16 19:00:00 0 6854 29.14 28.27 29.99 61.64 20.8 20
2019-06-16 20:00:00 0 6748 26.34 25.05 28.86 69.72 20.1 19.2
2019-06-16 21:00:00 0 6698 24 22.4 24.69 80.61 20.2 19.6
2019-06-16 22:00:00 0 6698 21.49 20.92 22.17 93.43 20.2 19.8
2019-06-16 23:00:00 0 6678 20.71 20.02 21.12 100 20.6 20
2019-06-17 00:00:00 0 6668 20.28 19.9 20.85 100 20.2 19.9
2019-06-17 01:00:00 0 6660 19.57 18.7 20.01 100 19.5 18.7
2019-06-17 02:00:00 0 6668 18.88 18.32 19.35 100 18.8 18.3
2019-06-17 03:00:00 0 6668 18.61 18.05 19.04 100 18.5 18
2019-06-17 04:00:00 0 6668 18.4 17.93 18.74 100 18.3 17.9
2019-06-17 05:00:00 0 6688 18.45 17.99 18.95 100 18.3 17.9
2019-06-17 06:00:00 0 6914 20.11 19.16 21.27 100 20 19.1
2019-06-17 07:00:00 0 7332 22.01 21.23 23.18 100 21.9 21.2
2019-06-17 08:00:00 0 7332 24.26 23.56 25.22 87.84 21.9 21.1
2019-06-17 09:00:00 0 7324 27.07 25.29 28.52 73.78 21.7 21.1
2019-06-17 10:00:00 0 7324 28.83 27.78 30.2 67.53 22 21.3
2019-06-17 11:00:00 0 7324 30.63 30.09 31.56 61.43 22.2 21.4
2019-06-17 12:00:00 0 7324 31.62 31.07 32.34 57.75 22.1 21.6
2019-06-17 13:00:00 0 7314 32.55 31.91 32.96 55.49 22.2 21.3
2019-06-17 14:00:00 0 7314 33.38 32.33 34.22 48.68 20.8 19.5
2019-06-17 15:00:00 0 7294 33.53 32.68 34.23 47.01 20.4 19.7
2019-06-17 16:00:00 0 7294 33.37 32.33 34.19 46.14 20 19.2